Gaiuut, Mongolia
Current Conditions -  °F | °C
As of 1:30 PM on Saturday 29 Nov 2014 (Local Time) from ZMUB Reporting Station
Scattered Clouds Scattered Clouds  
Wind Chill:   Ceiling: Unl
Heat Index: 14°   Visibility: 6mi
Dew Point: -6°   Wind: 7mph
Humidity: 41%   Direction: 270°W
Pressure: 29.85"   Gusts: NA
Location:  46.7°N, 100.13°E
Report Text: ZMUB 290530Z 27003MPS 230V330 9999 FEW033 SCT100 M10/M21 Q1011 NOSIG RMK QFE651.7 37 MOP
Loading
Personal Weather Stations






























Interactive Weather Map New forecast layout! Learn more

10-Day Weather Forecast

Advertisements
Track Severe Weather on mobile